Time;durP1;ratioP1;P1;durP2;ratioP2;P2;SDS_P1;SDS_P2;PMS_P1;PMS_P2;Temp;Humidity;BMP_temperature;BMP_pressure;BME280_temperature;BME280_humidity;BME280_pressure;Samples;Min_cycle;Max_cycle;Signal;HPM_P1;HPM_P2
2022/01/11 00:01:57;;;;;;;62.83;30.77;;;;;;;0.07;88.36;97762.41;1699453;83;21003;-73
2022/01/11 00:04:29;;;;;;;63.95;31.82;;;;;;;0.09;88.35;97761.56;1710995;83;21035;-73
2022/01/11 00:06:52;;;;;;;61.18;29.15;;;;;;;0.13;88.41;97765.95;1710212;84;21010;-73
2022/01/11 00:09:31;;;;;;;61.45;30.82;;;;;;;0.19;88.48;97774.68;1710840;84;21555;-74
2022/01/11 00:11:50;;;;;;;61.75;29.25;;;;;;;0.22;88.69;97778.62;1690315;84;21139;-74
2022/01/11 00:14:16;;;;;;;63.33;31.42;;;;;;;0.24;89.33;97773.87;1690359;85;21055;-74
2022/01/11 00:16:43;;;;;;;63.15;29.82;;;;;;;0.25;89.33;97779.97;1690249;85;21032;-74
2022/01/11 00:19:10;;;;;;;63.65;30.48;;;;;;;0.30;89.14;97777.38;1690146;85;21041;-75
2022/01/11 00:21:45;;;;;;;62.85;30.80;;;;;;;0.33;89.20;97786.55;1690945;84;21028;-74
2022/01/11 00:26:50;;;;;;;60.83;29.12;;;;;;;0.39;89.05;97784.86;1690727;85;20968;-74
2022/01/11 00:29:17;;;;;;;61.37;30.80;;;;;;;0.42;88.76;97790.95;1690657;85;21016;-74
2022/01/11 00:31:46;;;;;;;66.53;32.20;;;;;;;0.42;88.47;97790.95;1707876;84;21028;-74
2022/01/11 00:34:13;;;;;;;65.37;30.82;;;;;;;0.38;88.27;97798.73;1684447;84;21061;-74
2022/01/11 00:36:42;;;;;;;60.58;30.10;;;;;;;0.33;88.35;97796.52;1693031;83;21020;-74
2022/01/11 00:39:11;;;;;;;65.65;32.13;;;;;;;0.29;88.65;97792.59;1663551;85;21009;-73
2022/01/11 00:41:43;;;;;;;65.08;30.48;;;;;;;0.28;89.30;97793.01;1690571;85;20988;-74
2022/01/11 00:44:11;;;;;;;62.83;28.57;;;;;;;0.28;89.07;97787.80;1690428;85;21039;-74
2022/01/11 00:46:40;;;;;;;60.90;29.27;;;;;;;0.29;88.81;97787.38;1690596;85;20989;-74
2022/01/11 00:49:07;;;;;;;58.45;28.98;;;;;;;0.30;88.68;97790.42;1699365;84;21022;-74
2022/01/11 00:51:33;;;;;;;54.50;27.85;;;;;;;0.29;89.82;97799.11;1710768;84;21002;-74
2022/01/11 00:53:59;;;;;;;51.65;25.88;;;;;;;0.26;89.77;97792.13;1710995;83;21017;-74
2022/01/11 00:56:27;;;;;;;48.87;24.60;;;;;;;0.23;89.18;97794.28;1710914;83;21002;-74
2022/01/11 00:58:54;;;;;;;46.65;22.25;;;;;;;0.17;89.55;97803.33;1703903;83;21433;-74
2022/01/11 01:01:21;;;;;;;45.48;22.15;;;;;;;0.11;89.86;97798.07;1690590;85;21143;-73
2022/01/11 01:03:48;;;;;;;48.83;23.32;;;;;;;0.09;90.14;97803.27;1690806;85;21483;-73
2022/01/11 01:06:15;;;;;;;57.90;27.02;;;;;;;0.08;90.22;97799.37;1690634;85;21048;-74
2022/01/11 01:08:42;;;;;;;60.63;28.25;;;;;;;0.06;89.74;97806.28;1695466;84;21038;-74
2022/01/11 01:11:10;;;;;;;65.60;30.00;;;;;;;0.03;89.46;97800.61;1710965;84;21033;-73
2022/01/11 01:13:38;;;;;;;57.08;28.07;;;;;;;0.05;89.17;97802.82;1710498;84;21083;-74
2022/01/11 01:16:08;;;;;;;62.45;30.02;;;;;;;0.08;89.31;97792.86;1710875;84;21487;-74
2022/01/11 01:18:49;;;;;;;57.20;28.73;;;;;;;0.12;89.20;97800.70;1704830;84;21067;-75
2022/01/11 01:21:17;;;;;;;62.17;30.35;;;;;;;0.15;89.27;97802.88;1690686;85;21001;-75
2022/01/11 01:23:43;;;;;;;63.52;30.57;;;;;;;0.16;89.25;97808.11;1690675;85;21012;-75
2022/01/11 01:26:11;;;;;;;62.78;30.08;;;;;;;0.13;89.30;97802.44;1662877;85;20993;-76
2022/01/11 01:28:39;;;;;;;56.80;29.98;;;;;;;0.10;89.33;97807.64;1694292;84;20987;-76
2022/01/11 01:31:05;;;;;;;58.28;30.62;;;;;;;0.07;89.22;97805.00;1710908;83;21030;-76
2022/01/11 01:33:34;;;;;;;59.85;29.27;;;;;;;0.09;89.24;97803.71;1710868;83;21050;-73
2022/01/11 01:36:04;;;;;;;57.15;28.57;;;;;;;0.06;88.75;97808.47;1694071;83;20977;-74
2022/01/11 01:38:32;;;;;;;56.55;27.67;;;;;;;0.00;88.71;97805.81;1690728;85;21061;-74
2022/01/11 01:41:17;;;;;;;57.03;28.42;;;;;;;-0.03;88.58;97810.98;1690578;85;21724;-74
2022/01/11 01:43:47;;;;;;;56.92;28.32;;;;;;;-0.01;88.46;97810.55;1694804;84;21095;-75
2022/01/11 01:46:15;;;;;;;60.08;27.73;;;;;;;-0.05;88.30;97813.56;1710740;83;21006;-76
2022/01/11 01:48:42;;;;;;;57.93;28.15;;;;;;;-0.12;88.17;97816.98;1710581;83;20979;-75
2022/01/11 01:51:10;;;;;;;53.28;27.07;;;;;;;-0.16;88.29;97821.27;1710778;84;21074;-75
2022/01/11 01:53:44;;;;;;;53.55;26.20;;;;;;;-0.15;88.31;97826.94;1707757;83;21363;-75
2022/01/11 01:56:11;;;;;;;;;;;;;;;-0.21;88.69;97828.60;1670589;86;21099;-75
2022/01/11 01:58:39;;;;;;;55.20;26.75;;;;;;;-0.21;88.41;97835.11;1650371;86;21656;-75
2022/01/11 02:01:07;;;;;;;56.37;28.10;;;;;;;-0.28;88.76;97837.63;1668073;86;21067;-75
2022/01/11 02:03:39;;;;;;;52.25;26.35;;;;;;;-0.33;88.92;97837.15;1679457;84;21023;-75
2022/01/11 02:06:17;;;;;;;53.80;26.65;;;;;;;-0.45;89.71;97841.78;1668166;86;21083;-75
2022/01/11 02:08:49;;;;;;;58.30;26.40;;;;;;;-0.47;89.29;97832.64;1667386;86;21525;-75
2022/01/11 02:11:22;;;;;;;55.20;26.27;;;;;;;-0.44;88.96;97833.11;1668281;86;21059;-73
2022/01/11 02:13:50;;;;;;;57.35;27.17;;;;;;;-0.43;89.40;97840.95;1707015;84;21066;-74
2022/01/11 02:16:21;;;;;;;53.90;25.57;;;;;;;-0.48;89.68;97843.92;1710659;83;21429;-74
2022/01/11 02:18:49;;;;;;;51.42;25.90;;;;;;;-0.52;89.79;97839.53;1684605;84;21018;-73
2022/01/11 02:21:21;;;;;;;47.83;22.67;;;;;;;-0.52;90.08;97838.23;1698612;83;21045;-74
2022/01/11 02:23:50;;;;;;;46.08;23.27;;;;;;;-0.48;89.74;97838.72;1710743;84;21070;-74
2022/01/11 02:26:18;;;;;;;44.60;21.93;;;;;;;-0.44;89.58;97840.51;1710784;83;21026;-73
2022/01/11 02:28:45;;;;;;;48.28;23.12;;;;;;;-0.46;89.84;97842.20;1711020;84;21050;-73
2022/01/11 02:31:13;;;;;;;46.15;22.52;;;;;;;-0.38;89.48;97846.19;1697637;83;21001;-74
2022/01/11 02:33:46;;;;;;;47.85;22.82;;;;;;;-0.32;89.42;97844.98;1691608;84;21028;-74
2022/01/11 02:36:26;;;;;;;45.35;22.00;;;;;;;-0.27;89.08;97843.72;1685452;85;21441;-74
2022/01/11 02:38:55;;;;;;;49.03;22.50;;;;;;;-0.21;88.94;97844.23;1698027;84;21030;-74
2022/01/11 02:41:28;;;;;;;47.45;22.77;;;;;;;-0.19;88.88;97843.39;1710850;84;21018;-74
2022/01/11 02:43:57;;;;;;;44.42;22.17;;;;;;;-0.16;88.78;97847.76;1710738;84;21440;-75
2022/01/11 02:46:25;;;;;;;48.68;23.75;;;;;;;-0.15;88.68;97847.78;1710258;83;21058;-75
2022/01/11 02:48:55;;;;;;;44.60;22.93;;;;;;;-0.14;88.37;97853.84;1690529;85;21017;-75
2022/01/11 02:51:25;;;;;;;44.65;22.15;;;;;;;-0.19;88.34;97856.41;1690562;85;21004;-75
2022/01/11 02:53:57;;;;;;;43.70;22.90;;;;;;;-0.20;88.31;97858.55;1690472;85;20981;-75
2022/01/11 02:56:24;;;;;;;47.50;22.87;;;;;;;-0.23;88.21;97866.77;1690640;84;21635;-75
2022/01/11 02:58:51;;;;;;;40.63;21.60;;;;;;;-0.25;88.32;97862.83;1710654;84;21464;-74
2022/01/11 03:01:18;;;;;;;42.40;20.02;;;;;;;-0.24;88.13;97860.70;1710870;83;21382;-74
2022/01/11 03:03:45;;;;;;;43.08;21.42;;;;;;;-0.25;88.09;97861.53;1673241;84;21063;-75
2022/01/11 03:06:11;;;;;;;42.35;20.57;;;;;;;-0.24;88.11;97862.00;1673940;85;21020;-74
2022/01/11 03:08:44;;;;;;;42.98;21.10;;;;;;;-0.25;87.95;97869.79;1690757;84;21087;-74
2022/01/11 03:11:16;;;;;;;44.23;21.80;;;;;;;-0.28;88.09;97861.06;1691869;85;21040;-74
2022/01/11 03:13:44;;;;;;;42.08;20.12;;;;;;;-0.25;88.04;97869.79;1696275;84;20996;-74
2022/01/11 03:16:13;;;;;;;42.48;19.60;;;;;;;-0.26;88.05;97874.11;1696357;84;21083;-74
2022/01/11 03:18:40;;;;;;;41.35;22.13;;;;;;;-0.25;88.16;97875.85;1662883;85;21051;-74
2022/01/11 03:21:07;;;;;;;42.60;20.77;;;;;;;-0.23;88.05;97879.37;1690650;85;20965;-74
2022/01/11 03:23:34;;;;;;;45.90;21.00;;;;;;;-0.26;87.88;97874.11;1690661;85;20957;-73
2022/01/11 03:26:02;;;;;;;40.88;22.22;;;;;;;-0.26;87.84;97878.02;1690535;85;21132;-73
2022/01/11 03:28:31;;;;;;;44.95;21.82;;;;;;;-0.29;87.84;97876.70;1710262;84;21384;-73
2022/01/11 03:30:59;;;;;;;44.67;20.27;;;;;;;-0.35;87.82;97880.09;1710982;83;21493;-73
2022/01/11 03:33:25;;;;;;;39.30;18.82;;;;;;;-0.42;88.20;97879.14;1706366;83;21446;-74
2022/01/11 03:35:53;;;;;;;38.10;18.73;;;;;;;-0.48;88.52;97885.58;1682481;84;21020;-74
2022/01/11 03:38:22;;;;;;;39.33;19.52;;;;;;;-0.45;88.29;97890.80;1705221;84;21436;-74
2022/01/11 03:40:51;;;;;;;45.75;20.52;;;;;;;-0.43;88.41;97889.12;1695840;85;21107;-74
2022/01/11 03:43:21;;;;;;;39.35;19.73;;;;;;;-0.41;88.61;97888.70;1696316;85;21074;-74
2022/01/11 03:45:48;;;;;;;40.65;18.80;;;;;;;-0.38;88.64;97895.67;1696278;85;20997;-74
2022/01/11 03:48:17;;;;;;;40.28;18.73;;;;;;;-0.37;88.37;97890.94;1664060;85;21492;-74
2022/01/11 03:50:51;;;;;;;36.35;17.25;;;;;;;-0.33;88.51;97888.78;1690673;85;20985;-74
2022/01/11 03:53:15;;;;;;;34.00;16.67;;;;;;;-0.30;88.27;97887.95;1689658;85;21502;-75
2022/01/11 03:58:14;;;;;;;30.43;15.10;;;;;;;-0.29;88.28;97890.58;1710864;83;21069;-74
2022/01/11 04:00:43;;;;;;;32.28;17.02;;;;;;;-0.32;87.92;97897.07;1710889;84;21376;-74
2022/01/11 04:03:11;;;;;;;35.50;16.48;;;;;;;-0.33;87.95;97903.11;1709330;83;21078;-74
2022/01/11 04:05:42;;;;;;;34.45;16.00;;;;;;;-0.41;87.66;97910.83;1693654;84;20984;-74
2022/01/11 04:08:07;;;;;;;34.20;15.85;;;;;;;-0.42;87.77;97902.58;1693440;85;21450;-74
2022/01/11 04:10:34;;;;;;;35.60;16.12;;;;;;;-0.41;87.73;97909.97;1691305;84;21461;-74
2022/01/11 04:13:01;;;;;;;31.27;15.75;;;;;;;-0.42;87.65;97916.89;1687458;84;21520;-74
2022/01/11 04:15:28;;;;;;;35.05;16.70;;;;;;;-0.44;87.54;97921.22;1711295;84;21002;-74
2022/01/11 04:17:55;;;;;;;36.35;16.05;;;;;;;-0.48;87.52;97914.22;1711326;84;21066;-75
2022/01/11 04:20:22;;;;;;;35.83;17.55;;;;;;;-0.50;87.37;97922.42;1684025;84;21023;-75
2022/01/11 04:22:51;;;;;;;35.17;17.00;;;;;;;-0.51;87.31;97920.67;1674090;84;21055;-75
2022/01/11 04:25:19;;;;;;;31.48;15.38;;;;;;;-0.56;87.23;97927.55;1671124;84;20972;-75
2022/01/11 04:27:46;;;;;;;36.23;17.30;;;;;;;-0.57;87.27;97937.52;1684595;84;21100;-75
2022/01/11 04:30:13;;;;;;;40.40;16.75;;;;;;;-0.59;87.39;97940.52;1670778;86;21036;-75
2022/01/11 04:32:39;;;;;;;37.17;17.23;;;;;;;-0.59;87.39;97937.91;1670746;86;21084;-74
2022/01/11 04:35:09;;;;;;;36.73;16.48;;;;;;;-0.62;87.35;97937.89;1693234;83;21036;-75
2022/01/11 04:37:36;;;;;;;35.52;17.57;;;;;;;-0.62;87.25;97946.55;1710514;84;21121;-74
2022/01/11 04:40:04;;;;;;;37.20;17.02;;;;;;;-0.72;87.52;97945.55;1710691;84;21448;-74
2022/01/11 04:42:31;;;;;;;36.90;17.20;;;;;;;-0.67;87.50;97952.12;1711225;84;21066;-75
2022/01/11 04:44:58;;;;;;;34.15;16.50;;;;;;;-0.65;87.90;97958.66;1697421;84;20989;-75
2022/01/11 04:47:25;;;;;;;31.60;15.08;;;;;;;-0.63;87.74;97960.88;1693700;85;21489;-75
2022/01/11 04:49:51;;;;;;;32.25;15.85;;;;;;;-0.64;87.09;97957.80;1693468;84;21406;-75
2022/01/11 04:52:18;;;;;;;33.50;16.40;;;;;;;-0.65;87.21;97956.94;1693552;85;21052;-75
2022/01/11 04:54:44;;;;;;;32.28;15.45;;;;;;;-0.67;87.37;97956.02;1706007;84;21027;-75
2022/01/11 04:57:12;;;;;;;33.80;16.40;;;;;;;-0.63;87.37;97963.47;1711267;84;21015;-74
2022/01/11 04:59:38;;;;;;;32.88;15.48;;;;;;;-0.69;86.29;97967.73;1711304;84;21038;-74
2022/01/11 05:02:05;;;;;;;29.48;14.70;;;;;;;-0.70;87.25;97976.38;1706487;84;20995;-74
2022/01/11 05:04:31;;;;;;;34.43;16.15;;;;;;;-0.67;87.00;97966.02;1690475;85;21466;-74
2022/01/11 05:06:58;;;;;;;35.58;16.93;;;;;;;-0.67;86.91;97977.73;1690458;85;21464;-74
2022/01/11 05:09:25;;;;;;;35.60;15.95;;;;;;;-0.75;86.82;97975.88;1690540;85;21053;-74
2022/01/11 05:11:52;;;;;;;37.93;15.85;;;;;;;-0.71;86.97;97978.98;1693925;84;20939;-74
2022/01/11 05:14:18;;;;;;;31.62;15.83;;;;;;;-0.71;87.46;97986.78;1710883;84;21062;-74
2022/01/11 05:16:47;;;;;;;34.75;16.55;;;;;;;-0.72;87.19;97994.12;1700134;83;20970;-74
2022/01/11 05:19:14;;;;;;;35.00;16.02;;;;;;;-0.68;87.00;97986.81;1695748;85;21053;-74
2022/01/11 05:21:43;;;;;;;31.30;16.80;;;;;;;-0.70;86.94;97990.69;1697217;84;21062;-74
2022/01/11 05:24:11;;;;;;;31.40;15.28;;;;;;;-0.74;86.95;97993.23;1710914;83;21042;-74
2022/01/11 05:26:38;;;;;;;31.75;15.13;;;;;;;-0.74;87.20;97999.33;1710852;84;21010;-74
2022/01/11 05:29:05;;;;;;;30.15;15.72;;;;;;;-0.69;87.20;97998.08;1710964;84;20991;-75
2022/01/11 05:31:34;;;;;;;33.42;15.03;;;;;;;-0.70;87.09;98006.30;1710663;83;20994;-76
2022/01/11 05:34:03;;;;;;;28.40;13.93;;;;;;;-0.69;87.57;98010.69;1668035;86;21016;-75
2022/01/11 05:36:30;;;;;;;31.77;15.30;;;;;;;-0.73;87.44;98011.89;1693380;84;21077;-75
2022/01/11 05:38:56;;;;;;;36.80;16.23;;;;;;;-0.71;87.43;98012.81;1695937;85;21077;-75
2022/01/11 05:41:23;;;;;;;33.45;15.88;;;;;;;-0.68;87.73;98017.63;1695899;85;21065;-75
2022/01/11 05:43:50;;;;;;;33.78;15.72;;;;;;;-0.63;87.47;98020.30;1709795;84;21455;-75
2022/01/11 05:46:16;;;;;;;33.23;15.95;;;;;;;-0.62;87.05;98024.64;1710620;83;21091;-75
2022/01/11 05:48:45;;;;;;;32.45;16.23;;;;;;;-0.59;87.21;98033.81;1710902;83;20991;-75
2022/01/11 05:51:15;;;;;;;34.88;17.05;;;;;;;-0.68;86.61;98034.55;1710839;84;21440;-75
2022/01/11 05:53:43;;;;;;;34.63;16.48;;;;;;;-0.65;87.03;98034.14;1693358;83;20992;-74
2022/01/11 05:56:10;;;;;;;33.53;16.32;;;;;;;-0.60;87.12;98034.67;1662748;85;21096;-74
2022/01/11 05:58:37;;;;;;;37.83;17.15;;;;;;;-0.55;87.29;98042.53;1690620;85;21004;-74
2022/01/11 06:01:04;;;;;;;37.28;18.15;;;;;;;-0.55;86.75;98042.13;1692721;85;21050;-74
2022/01/11 06:03:30;;;;;;;30.95;16.40;;;;;;;-0.56;86.70;98049.49;1692101;84;21051;-74
2022/01/11 06:05:57;;;;;;;33.40;16.57;;;;;;;-0.57;86.72;98050.77;1690396;85;21422;-75
2022/01/11 06:08:23;;;;;;;35.30;17.73;;;;;;;-0.56;86.79;98055.11;1690584;85;21011;-74
2022/01/11 06:10:51;;;;;;;34.65;16.97;;;;;;;-0.55;86.99;98057.74;1697394;84;21041;-74
2022/01/11 06:13:19;;;;;;;38.28;18.25;;;;;;;-0.57;86.73;98058.58;1711125;83;21050;-75
2022/01/11 06:15:46;;;;;;;35.10;16.17;;;;;;;-0.55;86.79;98056.86;1710515;83;21061;-75
2022/01/11 06:18:13;;;;;;;35.20;17.80;;;;;;;-0.52;86.87;98065.14;1710854;84;21018;-75
2022/01/11 06:20:42;;;;;;;39.27;19.12;;;;;;;-0.53;86.41;98069.49;1702777;84;21064;-74
2022/01/11 06:23:10;;;;;;;35.00;17.98;;;;;;;-0.56;86.29;98078.55;1668317;86;21028;-74
2022/01/11 06:25:37;;;;;;;35.23;18.27;;;;;;;-0.55;86.59;98078.98;1668329;86;21070;-74
2022/01/11 06:28:05;;;;;;;38.20;18.40;;;;;;;-0.52;86.41;98084.67;1668196;86;21035;-75
2022/01/11 06:30:31;;;;;;;36.60;18.85;;;;;;;-0.56;86.32;98089.84;1672679;83;21084;-74
2022/01/11 06:32:58;;;;;;;35.70;18.62;;;;;;;-0.54;86.42;98091.17;1695984;84;21087;-75
2022/01/11 06:35:25;;;;;;;36.60;17.98;;;;;;;-0.49;86.78;98096.03;1694810;83;20992;-75
2022/01/11 06:37:53;;;;;;;35.13;18.40;;;;;;;-0.47;86.73;98095.62;1695891;85;20978;-75
2022/01/11 06:40:22;;;;;;;38.15;18.60;;;;;;;-0.53;85.54;98108.55;1694353;83;21073;-74
2022/01/11 06:42:52;;;;;;;41.23;19.48;;;;;;;-0.61;85.57;98112.33;1695726;85;21025;-74
2022/01/11 06:45:22;;;;;;;37.03;18.82;;;;;;;-0.62;85.67;98118.80;1692414;85;21057;-74
2022/01/11 06:47:49;;;;;;;37.95;17.48;;;;;;;-0.65;85.60;98122.23;1660288;86;21047;-74
2022/01/11 06:50:17;;;;;;;36.35;18.20;;;;;;;-0.64;85.80;98121.78;1677571;84;21023;-74
2022/01/11 06:52:44;;;;;;;38.80;17.87;;;;;;;-0.60;85.87;98123.59;1688432;83;21139;-74
2022/01/11 06:55:12;;;;;;;40.73;19.42;;;;;;;-0.58;85.53;98128.42;1680186;83;21028;-74
2022/01/11 06:57:39;;;;;;;38.17;18.67;;;;;;;-0.60;85.06;98121.88;1672945;85;21050;-75
2022/01/11 07:00:09;;;;;;;37.67;18.80;;;;;;;-0.62;84.81;98127.46;1667147;84;21094;-75
2022/01/11 07:02:37;;;;;;;38.15;18.12;;;;;;;-0.66;85.18;98136.09;1712526;83;20972;-75
2022/01/11 07:05:22;;;;;;;37.03;18.35;;;;;;;-0.64;85.22;98137.40;1694585;85;21057;-75
2022/01/11 07:07:48;;;;;;;37.17;17.87;;;;;;;-0.68;85.13;98135.17;1694819;84;21027;-75
2022/01/11 07:10:15;;;;;;;36.33;19.40;;;;;;;-0.69;84.95;98141.23;1694699;84;21052;-75
2022/01/11 07:12:42;;;;;;;40.58;19.85;;;;;;;-0.77;85.21;98141.52;1689089;85;21004;-75
2022/01/11 07:15:11;;;;;;;39.08;20.50;;;;;;;-0.85;85.56;98134.45;1689173;85;21509;-75
2022/01/11 07:17:38;;;;;;;39.67;19.32;;;;;;;-0.81;85.97;98143.19;1706188;84;21045;-75
2022/01/11 07:20:06;;;;;;;43.15;19.98;;;;;;;-0.70;85.74;98146.00;1689770;84;20956;-75
2022/01/11 07:22:33;;;;;;;39.60;19.98;;;;;;;-0.67;85.63;98150.83;1695087;85;20965;-76
2022/01/11 07:25:00;;;;;;;41.53;21.42;;;;;;;-0.62;85.62;98153.94;1674178;85;21033;-75
2022/01/11 07:27:27;;;;;;;41.58;20.80;;;;;;;-0.65;84.94;98152.16;1696111;84;21006;-76
2022/01/11 07:29:55;;;;;;;37.00;18.85;;;;;;;-0.68;85.19;98156.89;1695712;85;21022;-76
2022/01/11 07:32:22;;;;;;;42.73;18.95;;;;;;;-0.69;84.73;98155.14;1695365;83;21000;-76
2022/01/11 07:34:49;;;;;;;35.35;17.77;;;;;;;-0.65;84.97;98168.19;1693332;84;21066;-77
2022/01/11 07:37:16;;;;;;;37.33;18.35;;;;;;;-0.66;84.54;98168.63;1698327;84;20976;-75
2022/01/11 07:39:44;;;;;;;38.17;18.57;;;;;;;-0.68;84.14;98170.31;1692748;83;21418;-76
2022/01/11 07:42:10;;;;;;;33.83;17.50;;;;;;;-0.62;84.78;98168.26;1696536;84;21009;-75
2022/01/11 07:44:51;;;;;;;36.38;17.67;;;;;;;-0.67;84.36;98172.06;1697082;82;21019;-76
2022/01/11 07:47:19;;;;;;;37.93;19.12;;;;;;;-0.62;84.57;98185.18;1693409;84;21068;-76
2022/01/11 07:49:47;;;;;;;35.60;18.05;;;;;;;-0.60;84.81;98187.37;1691079;84;21051;-76
2022/01/11 07:52:15;;;;;;;34.90;19.27;;;;;;;-0.51;84.91;98193.19;1692167;85;21005;-76
2022/01/11 07:54:43;;;;;;;38.53;19.75;;;;;;;-0.47;84.17;98197.16;1694779;85;21003;-74
2022/01/11 07:57:11;;;;;;;56.35;27.93;;;;;;;-0.49;84.11;98204.09;1694789;85;21048;-75
2022/01/11 07:59:38;;;;;;;38.50;19.45;;;;;;;-0.44;84.46;98206.34;1691041;84;20977;-75
2022/01/11 08:02:05;;;;;;;39.15;18.85;;;;;;;-0.44;83.63;98208.06;1696185;84;21021;-74
2022/01/11 08:04:33;;;;;;;40.63;18.57;;;;;;;-0.42;83.88;98203.73;1692260;84;21008;-74
2022/01/11 08:07:00;;;;;;;36.53;17.77;;;;;;;-0.40;83.91;98213.34;1686889;85;21019;-74
2022/01/11 08:09:31;;;;;;;34.80;17.45;;;;;;;-0.40;83.07;98212.48;1684678;85;21055;-74
2022/01/11 08:11:58;;;;;;;34.85;17.87;;;;;;;-0.34;83.81;98216.92;1687275;85;21052;-74
2022/01/11 08:14:26;;;;;;;34.60;17.37;;;;;;;-0.28;83.24;98223.54;1687255;85;21039;-74
2022/01/11 08:16:53;;;;;;;32.88;16.57;;;;;;;-0.25;83.67;98211.85;1663080;85;21036;-74
2022/01/11 08:19:25;;;;;;;34.10;16.85;;;;;;;-0.16;83.60;98223.73;1687169;85;21016;-74
2022/01/11 08:21:55;;;;;;;35.90;16.97;;;;;;;-0.08;83.27;98221.70;1685184;85;21008;-74
2022/01/11 08:24:23;;;;;;;35.70;16.55;;;;;;;-0.06;82.99;98226.09;1687062;85;21442;-74
2022/01/11 08:26:51;;;;;;;40.40;19.12;;;;;;;-0.02;83.05;98227.01;1687033;85;21481;-74
2022/01/11 08:29:20;;;;;;;37.95;18.82;;;;;;;0.05;82.98;98234.50;1684390;84;21023;-75
2022/01/11 08:31:49;;;;;;;33.98;17.35;;;;;;;0.09;81.47;98231.09;1686727;85;21080;-76
2022/01/11 08:34:16;;;;;;;38.90;18.95;;;;;;;0.11;82.30;98231.58;1686900;84;21075;-75
2022/01/11 08:36:48;;;;;;;34.33;17.82;;;;;;;0.20;82.35;98235.19;1687070;85;21008;-75
2022/01/11 08:39:17;;;;;;;36.93;17.40;;;;;;;0.25;81.89;98234.39;1683577;85;21052;-75
2022/01/11 08:41:44;;;;;;;34.10;16.97;;;;;;;0.28;82.14;98240.08;1687186;84;20992;-75
2022/01/11 08:44:11;;;;;;;33.30;16.25;;;;;;;0.33;79.53;98245.38;1687074;85;21059;-75
2022/01/11 08:46:41;;;;;;;31.73;15.48;;;;;;;0.39;79.31;98231.13;1687580;84;21012;-75
2022/01/11 08:49:12;;;;;;;28.30;14.10;;;;;;;0.34;78.99;98234.95;1680197;85;20974;-76
2022/01/11 08:51:40;;;;;;;27.50;14.68;;;;;;;0.30;76.72;98237.09;1681730;85;21080;-75
2022/01/11 08:54:09;;;;;;;30.00;14.85;;;;;;;0.29;77.15;98245.73;1663801;85;20998;-76
2022/01/11 08:56:35;;;;;;;32.45;15.40;;;;;;;0.27;76.95;98244.84;1687428;85;21006;-75
2022/01/11 08:59:03;;;;;;;27.02;14.53;;;;;;;0.29;77.47;98247.48;1687164;85;21031;-75
2022/01/11 09:01:34;;;;;;;28.27;14.20;;;;;;;0.35;77.55;98244.97;1680723;85;21482;-75
2022/01/11 09:04:02;;;;;;;32.35;15.28;;;;;;;0.27;76.07;98250.06;1683046;83;21051;-76
2022/01/11 09:06:30;;;;;;;31.73;15.20;;;;;;;0.38;77.90;98238.06;1705409;84;21038;-75
2022/01/11 09:08:57;;;;;;;27.80;14.10;;;;;;;0.42;77.20;98238.12;1711177;84;21035;-76
2022/01/11 09:11:23;;;;;;;28.77;13.95;;;;;;;0.52;77.39;98242.61;1710868;84;21018;-76
2022/01/11 09:13:51;;;;;;;26.73;12.93;;;;;;;0.58;75.67;98247.91;1704588;84;21022;-75
2022/01/11 09:16:18;;;;;;;25.90;12.75;;;;;;;0.58;73.98;98244.44;1701593;84;21035;-75
2022/01/11 09:18:47;;;;;;;25.60;13.32;;;;;;;0.58;74.18;98241.84;1709800;84;20979;-74
2022/01/11 09:21:15;;;;;;;25.32;12.85;;;;;;;0.74;75.17;98246.81;1711095;84;21054;-75
2022/01/11 09:23:42;;;;;;;28.20;12.73;;;;;;;0.90;75.82;98246.19;1675095;84;21032;-76
2022/01/11 09:26:08;;;;;;;26.33;13.08;;;;;;;1.04;76.50;98241.14;1698917;84;20980;-75
2022/01/11 09:28:37;;;;;;;22.87;12.75;;;;;;;1.16;75.33;98243.48;1703609;84;21015;-75
2022/01/11 09:31:04;;;;;;;23.77;11.73;;;;;;;1.28;75.58;98242.30;1692848;85;21059;-75
2022/01/11 09:33:31;;;;;;;23.67;11.08;;;;;;;1.38;75.74;98239.38;1693907;83;21047;-75
2022/01/11 09:36:00;;;;;;;24.98;12.07;;;;;;;1.48;76.34;98239.03;1698469;83;20992;-75
2022/01/11 09:38:28;;;;;;;23.40;11.83;;;;;;;1.48;70.95;98245.98;1698749;84;21044;-75
2022/01/11 09:40:58;;;;;;;20.90;11.15;;;;;;;1.54;74.32;98239.09;1706214;84;21044;-74
2022/01/11 09:43:27;;;;;;;23.98;11.30;;;;;;;1.61;73.69;98233.50;1705538;84;21357;-74
2022/01/11 09:45:57;;;;;;;22.82;10.72;;;;;;;1.68;72.60;98237.95;1695384;84;21046;-74
2022/01/11 09:48:28;;;;;;;21.93;10.82;;;;;;;1.76;72.52;98234.10;1693266;85;21398;-75
2022/01/11 09:50:56;;;;;;;21.87;11.25;;;;;;;1.80;72.71;98237.20;1693178;85;21060;-74
2022/01/11 09:53:23;;;;;;;22.45;11.60;;;;;;;1.81;67.50;98237.63;1693049;85;21040;-75
2022/01/11 09:55:51;;;;;;;22.15;12.03;;;;;;;1.69;67.27;98238.81;1700434;84;21238;-75
2022/01/11 09:58:20;;;;;;;22.67;12.40;;;;;;;1.68;68.22;98238.37;1707117;84;21004;-75
2022/01/11 10:00:52;;;;;;;25.65;12.53;;;;;;;1.66;66.83;98246.64;1693671;84;21119;-75
2022/01/11 10:03:29;;;;;;;22.20;10.45;;;;;;;1.50;66.89;98241.22;1668863;85;21382;-76
2022/01/11 10:06:14;;;;;;;21.62;11.18;;;;;;;1.37;66.72;98244.12;1695369;84;21380;-76
2022/01/11 10:08:41;;;;;;;22.45;11.40;;;;;;;1.37;67.61;98242.83;1707051;84;21070;-76
2022/01/11 10:11:08;;;;;;;23.30;10.90;;;;;;;1.28;66.98;98249.24;1684045;84;20963;-75
2022/01/11 10:13:39;;;;;;;21.57;10.72;;;;;;;1.36;67.08;98246.75;1710176;83;21086;-76
2022/01/11 10:16:24;;;;;;;21.20;10.68;;;;;;;1.43;68.91;98244.22;1710565;83;21002;-74
2022/01/11 10:18:55;;;;;;;25.15;12.55;;;;;;;1.51;68.97;98248.64;1697820;83;21144;-73
2022/01/11 10:21:41;;;;;;;26.00;13.18;;;;;;;1.60;70.19;98242.63;1690748;84;21028;-75
2022/01/11 10:24:39;;;;;;;24.25;11.75;;;;;;;1.55;69.25;98246.09;1691130;84;21521;-76
2022/01/11 10:27:21;;;;;;;26.40;12.10;;;;;;;1.45;69.46;98242.49;1694849;84;21465;-75
2022/01/11 10:29:53;;;;;;;24.80;11.28;;;;;;;1.34;69.02;98251.95;1684688;84;21032;-75
2022/01/11 10:32:40;;;;;;;23.95;11.75;;;;;;;1.29;69.71;98247.96;1693799;84;21079;-76
2022/01/11 10:35:25;;;;;;;21.20;11.10;;;;;;;1.26;69.67;98250.97;1688912;85;21469;-76
2022/01/11 10:37:59;;;;;;;24.85;11.22;;;;;;;1.16;69.92;98250.86;1690225;85;21020;-76
2022/01/11 10:40:32;;;;;;;21.30;11.65;;;;;;;1.09;69.99;98251.66;1690234;85;21083;-74
2022/01/11 10:43:06;;;;;;;23.38;11.40;;;;;;;1.15;70.72;98239.98;1676060;84;21014;-75
2022/01/11 10:45:42;;;;;;;26.10;12.65;;;;;;;1.17;70.73;98240.86;1706810;83;20976;-75
2022/01/11 10:48:17;;;;;;;22.93;11.28;;;;;;;1.33;71.71;98244.98;1704630;84;21011;-75
2022/01/11 10:50:49;;;;;;;22.80;11.28;;;;;;;1.45;70.15;98241.60;1680516;84;21051;-75
2022/01/11 10:53:21;;;;;;;20.27;10.63;;;;;;;1.48;69.63;98242.95;1697975;84;21037;-75
2022/01/11 10:55:52;;;;;;;21.85;11.05;;;;;;;1.44;68.88;98245.08;1689923;84;21501;-75
2022/01/11 10:58:20;;;;;;;23.25;11.75;;;;;;;1.43;69.28;98240.31;1688477;83;21415;-75
2022/01/11 11:00:50;;;;;;;21.07;10.63;;;;;;;1.47;69.74;98239.02;1690237;83;21514;-75
2022/01/11 11:03:24;;;;;;;21.85;10.90;;;;;;;1.56;70.08;98236.09;1690814;84;21012;-74
2022/01/11 11:06:07;;;;;;;22.58;11.12;;;;;;;1.74;69.72;98231.89;1699743;83;21039;-75
2022/01/11 11:08:36;;;;;;;21.50;11.20;;;;;;;1.79;68.83;98237.17;1693576;85;21040;-76
2022/01/11 11:11:20;;;;;;;20.62;11.10;;;;;;;1.81;68.63;98236.33;1689490;85;21083;-75
2022/01/11 11:13:51;;;;;;;20.90;10.30;;;;;;;1.96;67.81;98237.34;1701591;84;20969;-75
2022/01/11 11:16:30;;;;;;;23.87;11.20;;;;;;;2.06;67.22;98235.66;1707429;84;20993;-75
2022/01/11 11:19:01;;;;;;;21.42;10.38;;;;;;;2.18;66.88;98245.34;1695588;82;21032;-76
2022/01/11 11:21:38;;;;;;;23.15;11.35;;;;;;;2.13;65.85;98245.74;1680879;84;21040;-75
2022/01/11 11:24:14;;;;;;;24.35;11.68;;;;;;;2.11;65.76;98244.00;1686967;84;21034;-77
2022/01/11 11:26:49;;;;;;;21.05;10.88;;;;;;;2.14;66.22;98246.18;1704380;84;21055;-78
2022/01/11 11:29:19;;;;;;;22.27;11.48;;;;;;;2.18;66.02;98246.23;1694989;84;21438;-77
2022/01/11 11:31:47;;;;;;;25.17;11.25;;;;;;;2.19;65.57;98244.06;1695611;85;20985;-76
2022/01/11 11:34:14;;;;;;;24.85;11.73;;;;;;;2.28;66.63;98243.70;1701410;84;20995;-77
2022/01/11 11:36:42;;;;;;;23.18;10.78;;;;;;;2.42;66.07;98237.25;1698688;84;21454;-76